Hovedside
METAR-TAF:

METAR-TAF

Lufthavner :

London Heathrow lufthavn

London-Heathrow, England

breddegrad: 51-29N, lengdegrad: 000-27W, høyde over havet: 24 m

Gjeldene værobservasjon

Denne rapporten ble laget for 32 minutter siden, klokken 15:20 UTC
Vind 12 kt fra Øst-sørøst
Temperatur 5°C
Luftfuktighet 70%
Trykk 1010 hPa
Sikt 10 km eller mer

METAR: EGLL 201520Z AUTO 11012KT 9999 NCD 05/M00 Q1010

Tid: 15:52 (15:52 UTC)

Varsel

Denne rapporten ble laget for 4 timer og 51 minutter siden, klokken 11:01 UTC
Varsel gyldig fra 20. klokken 12 UTC til 21. klokken 18 UTC
Vind 10 kt fra Øst-sørøst
Sikt 10 km eller mer
Få skyer i en høyde av 3000 ft
Midlertidig
fra 20. klokken 20 UTC til 21. klokken 18 UTC
Brutte skyer i en høyde av 1200 ft
Sannsynlighet 40% :
Midlertidig
fra 20. klokken 23 UTC til 21. klokken 13 UTC
Sikt: 7000 m
Brutte skyer i en høyde av 800 ft

TAF: EGLL 201101Z 2012/2118 12010KT 9999 FEW030 TEMPO 2020/2118 BKN012 PROB40 TEMPO 2023/2113 7000 BKN008

Værobservasjoner og værvarsel for over 4000 flyplasser (METAR- og TAF-rapporter).

Tilgjengelige stasjoner er representert av de røde og gule prikkene på kartet.

Hold musepekeren over prikken for å se navnet på stasjonen.

Klikk så for å se værobservasjoner og -varsler.

For å forandre kartet kan du klikke på den grønne knappen med svart kryss for å zoome inn, på den grønne knappen med strek for å zoome ut, eller på de grønne pilene for å se tilstøtende kart.


METAR-TAF: